METAR: UUDD 271600Z 03005MPS CAVOK 15/04 Q1014 R88/010095 NOSIG
TAF: UUDD 271359Z 2715/2821 34008MPS 9999 BKN020 TX16/2715Z TN07/2804Z PROB40 TEMPO 2715/2718 -TSRA BKN015CB BECMG 2718/2720 36003MPS TEMPO 2722/2809 -SHRA SCT005 BKN012CB BECMG 2803/2805 36008G13MPS
→ Filename:
→ Date: 1 year ago (14.06.2017 20:54)
→ Author:
→ Uploaded by: diems (uploaded 41 files )
→ Approved by moderator: SLAVJAN
→ License: Freeware - Free version, Unlimited Distribution
 5 
Спасибо! Очень красиво снято! novost, 1 year ago, #
 5 
Спасибки. Отличная точка, и забора не видно. Vaniks, 1 year ago, #

You need to authentificate to comment. Please login.